CPA976 RPLL-VHHH
Flight info
| Callsign | CPA976 |
|---|---|
| Flight time | 1h 34m |
| Altitude | 33000 |
| Route | CAB2R/06 CAB A461 NOMAN V533 BETTY BETY3A/07C |
| Aircraft | A359/H-SDE2E3GHIJ1J3J4J5LM1ORWXYZ/LB1D1 |
Departure
| Time | 2026-05-06 18:15 |
|---|---|
| Airport | Ninoy Aquino International Airport (RPLL) |
Arrival
| Time | 2026-05-06 19:50 |
|---|---|
| Airport | Hong Kong International Airport (VHHH) |
| Time | Latitude | Longitude | Altitude | Speed | Heading |
|---|---|---|---|---|---|
| 2026-05-06 17:49 | 14.51890 | 121.01265 | 88 ft | 0 kts | 46° |
| 2026-05-06 18:00 | 14.51885 | 121.01259 | 89 ft | 2 kts | 46° |
| 2026-05-06 18:00 | 14.51874 | 121.01248 | 89 ft | 2 kts | 46° |
| 2026-05-06 18:00 | 14.51864 | 121.01237 | 89 ft | 2 kts | 46° |
| 2026-05-06 18:01 | 14.51854 | 121.01225 | 89 ft | 2 kts | 62° |
| 2026-05-06 18:01 | 14.51849 | 121.01211 | 89 ft | 2 kts | 82° |
| 2026-05-06 18:01 | 14.51849 | 121.01196 | 89 ft | 2 kts | 100° |
| 2026-05-06 18:01 | 14.51853 | 121.01181 | 89 ft | 2 kts | 118° |
| 2026-05-06 18:02 | 14.51860 | 121.01170 | 89 ft | 0 kts | 134° |
| 2026-05-06 18:02 | 14.51862 | 121.01168 | 89 ft | 0 kts | 135° |
| 2026-05-06 18:05 | 14.51854 | 121.01176 | 88 ft | 4 kts | 135° |
| 2026-05-06 18:05 | 14.51818 | 121.01214 | 88 ft | 9 kts | 135° |
| 2026-05-06 18:05 | 14.51757 | 121.01278 | 88 ft | 15 kts | 135° |
| 2026-05-06 18:05 | 14.51679 | 121.01359 | 88 ft | 16 kts | 135° |
| 2026-05-06 18:06 | 14.51602 | 121.01437 | 88 ft | 14 kts | 135° |
| 2026-05-06 18:06 | 14.51521 | 121.01522 | 89 ft | 16 kts | 134° |
| 2026-05-06 18:06 | 14.51430 | 121.01618 | 89 ft | 19 kts | 135° |
| 2026-05-06 18:06 | 14.51347 | 121.01703 | 89 ft | 18 kts | 137° |
| 2026-05-06 18:07 | 14.51255 | 121.01798 | 89 ft | 17 kts | 135° |
| 2026-05-06 18:07 | 14.51173 | 121.01881 | 88 ft | 16 kts | 134° |
| 2026-05-06 18:07 | 14.51095 | 121.01963 | 88 ft | 9 kts | 135° |
| 2026-05-06 18:07 | 14.51051 | 121.01978 | 89 ft | 4 kts | 208° |
| 2026-05-06 18:08 | 14.51014 | 121.01936 | 88 ft | 11 kts | 237° |
| 2026-05-06 18:08 | 14.50964 | 121.01849 | 89 ft | 16 kts | 240° |
| 2026-05-06 18:08 | 14.50906 | 121.01744 | 89 ft | 13 kts | 239° |
| 2026-05-06 18:08 | 14.50851 | 121.01646 | 88 ft | 18 kts | 242° |
| 2026-05-06 18:09 | 14.50780 | 121.01517 | 89 ft | 22 kts | 239° |
| 2026-05-06 18:09 | 14.50696 | 121.01366 | 88 ft | 25 kts | 240° |
| 2026-05-06 18:09 | 14.50606 | 121.01204 | 89 ft | 27 kts | 240° |
| 2026-05-06 18:09 | 14.50518 | 121.01046 | 88 ft | 25 kts | 240° |
| 2026-05-06 18:10 | 14.50431 | 121.00889 | 88 ft | 25 kts | 240° |
| 2026-05-06 18:10 | 14.50339 | 121.00724 | 89 ft | 27 kts | 240° |
| 2026-05-06 18:10 | 14.50243 | 121.00550 | 89 ft | 27 kts | 240° |
| 2026-05-06 18:10 | 14.50151 | 121.00385 | 89 ft | 23 kts | 240° |
| 2026-05-06 18:11 | 14.50088 | 121.00271 | 88 ft | 18 kts | 240° |
| 2026-05-06 18:11 | 14.50016 | 121.00141 | 89 ft | 22 kts | 239° |
| 2026-05-06 18:11 | 14.49950 | 121.00021 | 89 ft | 18 kts | 240° |
| 2026-05-06 18:11 | 14.49912 | 120.99974 | 89 ft | 7 kts | 208° |
| 2026-05-06 18:12 | 14.49894 | 120.99971 | 89 ft | 4 kts | 181° |
| 2026-05-06 18:12 | 14.49891 | 120.99971 | 89 ft | 0 kts | 178° |
| 2026-05-06 18:13 | 14.49877 | 120.99973 | 88 ft | 4 kts | 167° |
| 2026-05-06 18:13 | 14.49849 | 120.99984 | 88 ft | 2 kts | 156° |
| 2026-05-06 18:14 | 14.49818 | 121.00006 | 88 ft | 7 kts | 131° |
| 2026-05-06 18:14 | 14.49809 | 121.00056 | 88 ft | 6 kts | 70° |
| 2026-05-06 18:14 | 14.49839 | 121.00114 | 89 ft | 10 kts | 59° |
| 2026-05-06 18:14 | 14.49860 | 121.00152 | 88 ft | 7 kts | 60° |
| 2026-05-06 18:15 | 14.49979 | 121.00367 | 89 ft | 71 kts | 61° |
| 2026-05-06 18:15 | 14.50342 | 121.01018 | 89 ft | 136 kts | 60° |
| 2026-05-06 18:15 | 14.50886 | 121.01990 | 321 ft | 166 kts | 62° |
| 2026-05-06 18:15 | 14.51439 | 121.02958 | 1118 ft | 153 kts | 62° |
| 2026-05-06 18:16 | 14.51977 | 121.03930 | 1602 ft | 161 kts | 63° |
| 2026-05-06 18:16 | 14.52463 | 121.04829 | 2001 ft | 165 kts | 63° |
| 2026-05-06 18:16 | 14.53044 | 121.05898 | 2261 ft | 176 kts | 63° |
| 2026-05-06 18:16 | 14.53659 | 121.07020 | 2526 ft | 188 kts | 62° |
| 2026-05-06 18:17 | 14.54327 | 121.08231 | 2786 ft | 202 kts | 62° |
| 2026-05-06 18:17 | 14.55048 | 121.09533 | 3091 ft | 217 kts | 62° |
| 2026-05-06 18:17 | 14.55809 | 121.10917 | 3421 ft | 230 kts | 59° |
| 2026-05-06 18:17 | 14.56690 | 121.12362 | 3718 ft | 245 kts | 48° |
| 2026-05-06 18:18 | 14.58090 | 121.13377 | 3992 ft | 260 kts | 19° |
| 2026-05-06 18:18 | 14.59881 | 121.13540 | 4410 ft | 269 kts | 355° |
| 2026-05-06 18:18 | 14.61730 | 121.13305 | 4999 ft | 271 kts | 353° |
| 2026-05-06 18:18 | 14.63584 | 121.13058 | 5666 ft | 275 kts | 353° |
| 2026-05-06 18:19 | 14.65487 | 121.12804 | 6711 ft | 277 kts | 353° |
| 2026-05-06 18:19 | 14.67342 | 121.12564 | 7663 ft | 269 kts | 353° |
| 2026-05-06 18:19 | 14.69196 | 121.12328 | 8156 ft | 275 kts | 352° |
| 2026-05-06 18:19 | 14.71073 | 121.12091 | 8685 ft | 278 kts | 352° |
| 2026-05-06 18:20 | 14.73001 | 121.11848 | 9255 ft | 280 kts | 352° |
| 2026-05-06 18:20 | 14.74911 | 121.11610 | 9803 ft | 283 kts | 352° |
| 2026-05-06 18:20 | 14.76843 | 121.11368 | 10344 ft | 285 kts | 351° |
| 2026-05-06 18:20 | 14.78798 | 121.11124 | 10866 ft | 288 kts | 351° |
| 2026-05-06 18:21 | 14.80798 | 121.10875 | 11385 ft | 290 kts | 351° |
| 2026-05-06 18:21 | 14.82810 | 121.10625 | 11889 ft | 294 kts | 351° |
| 2026-05-06 18:21 | 14.84820 | 121.10374 | 12376 ft | 297 kts | 351° |
| 2026-05-06 18:21 | 14.86834 | 121.10120 | 12878 ft | 299 kts | 351° |
| 2026-05-06 18:22 | 14.88900 | 121.09860 | 13399 ft | 300 kts | 351° |
| 2026-05-06 18:22 | 14.90973 | 121.09600 | 13913 ft | 302 kts | 351° |
| 2026-05-06 18:22 | 14.93026 | 121.09344 | 14415 ft | 303 kts | 351° |
| 2026-05-06 18:22 | 14.95125 | 121.09082 | 14915 ft | 304 kts | 352° |
| 2026-05-06 18:23 | 14.97217 | 121.08821 | 15402 ft | 305 kts | 352° |
| 2026-05-06 18:23 | 14.99307 | 121.08561 | 15879 ft | 306 kts | 352° |
| 2026-05-06 18:23 | 15.01382 | 121.08302 | 16347 ft | 307 kts | 352° |
| 2026-05-06 18:23 | 15.03499 | 121.08038 | 16815 ft | 308 kts | 352° |
| 2026-05-06 18:24 | 15.05516 | 121.07787 | 17248 ft | 309 kts | 353° |
| 2026-05-06 18:24 | 15.07651 | 121.07521 | 17680 ft | 311 kts | 353° |
| 2026-05-06 18:24 | 15.09813 | 121.07252 | 18098 ft | 312 kts | 353° |
| 2026-05-06 18:24 | 15.11896 | 121.06993 | 18494 ft | 314 kts | 353° |
| 2026-05-06 18:25 | 15.13976 | 121.06735 | 18890 ft | 319 kts | 353° |
| 2026-05-06 18:25 | 15.16233 | 121.06455 | 19205 ft | 333 kts | 353° |
| 2026-05-06 18:25 | 15.18534 | 121.06170 | 19480 ft | 347 kts | 353° |
| 2026-05-06 18:25 | 15.20989 | 121.05864 | 19755 ft | 360 kts | 353° |
| 2026-05-06 18:26 | 15.23454 | 121.05557 | 20010 ft | 373 kts | 354° |
| 2026-05-06 18:26 | 15.26054 | 121.05232 | 20263 ft | 386 kts | 354° |
| 2026-05-06 18:26 | 15.28777 | 121.04891 | 20508 ft | 398 kts | 354° |
| 2026-05-06 18:26 | 15.31550 | 121.04544 | 20741 ft | 410 kts | 354° |
| 2026-05-06 18:27 | 15.34399 | 121.04187 | 20963 ft | 421 kts | 354° |
| 2026-05-06 18:27 | 15.37347 | 121.03817 | 21207 ft | 431 kts | 354° |
| 2026-05-06 18:27 | 15.40308 | 121.03445 | 21604 ft | 436 kts | 354° |
| 2026-05-06 18:27 | 15.43331 | 121.03065 | 22085 ft | 440 kts | 353° |
| 2026-05-06 18:28 | 15.46332 | 121.02512 | 22552 ft | 444 kts | 348° |
| 2026-05-06 18:28 | 15.49328 | 121.01614 | 23003 ft | 449 kts | 342° |
| 2026-05-06 18:28 | 15.52203 | 121.00384 | 23425 ft | 454 kts | 337° |
| 2026-05-06 18:28 | 15.55030 | 120.98933 | 23840 ft | 458 kts | 335° |
| 2026-05-06 18:29 | 15.57878 | 120.97414 | 24232 ft | 462 kts | 335° |
| 2026-05-06 18:29 | 15.60722 | 120.95885 | 24601 ft | 466 kts | 335° |
| 2026-05-06 18:29 | 15.63598 | 120.94340 | 24966 ft | 469 kts | 335° |
| 2026-05-06 18:29 | 15.66512 | 120.92781 | 25328 ft | 472 kts | 335° |
| 2026-05-06 18:30 | 15.69420 | 120.91227 | 25676 ft | 476 kts | 335° |
| 2026-05-06 18:30 | 15.72309 | 120.89686 | 26008 ft | 479 kts | 335° |
| 2026-05-06 18:30 | 15.75015 | 120.88244 | 26305 ft | 481 kts | 335° |
| 2026-05-06 18:31 | 15.79879 | 120.85652 | 26814 ft | 486 kts | 335° |
| 2026-05-06 18:31 | 15.82706 | 120.84145 | 27095 ft | 489 kts | 335° |
| 2026-05-06 18:31 | 15.86341 | 120.82207 | 27442 ft | 492 kts | 335° |
| 2026-05-06 18:31 | 15.89361 | 120.80596 | 27720 ft | 494 kts | 335° |
| 2026-05-06 18:32 | 15.92431 | 120.78958 | 27994 ft | 497 kts | 335° |
| 2026-05-06 18:32 | 15.95511 | 120.77315 | 28261 ft | 500 kts | 335° |
| 2026-05-06 18:32 | 15.98596 | 120.75668 | 28519 ft | 502 kts | 335° |
| 2026-05-06 18:32 | 16.01684 | 120.74019 | 28770 ft | 504 kts | 335° |
| 2026-05-06 18:33 | 16.04835 | 120.72335 | 29038 ft | 506 kts | 335° |
| 2026-05-06 18:33 | 16.07911 | 120.70690 | 29385 ft | 506 kts | 335° |
| 2026-05-06 18:33 | 16.10967 | 120.69057 | 29753 ft | 505 kts | 335° |
| 2026-05-06 18:33 | 16.14081 | 120.67398 | 30108 ft | 505 kts | 335° |
| 2026-05-06 18:34 | 16.17171 | 120.65752 | 30438 ft | 505 kts | 335° |
| 2026-05-06 18:34 | 16.20334 | 120.64066 | 30766 ft | 505 kts | 335° |
| 2026-05-06 18:34 | 16.23419 | 120.62418 | 31080 ft | 505 kts | 335° |
| 2026-05-06 18:34 | 16.26518 | 120.60760 | 31394 ft | 505 kts | 335° |
| 2026-05-06 18:35 | 16.29617 | 120.59100 | 31704 ft | 505 kts | 335° |
| 2026-05-06 18:35 | 16.32713 | 120.57439 | 32009 ft | 505 kts | 335° |
| 2026-05-06 18:35 | 16.35798 | 120.55785 | 32293 ft | 505 kts | 335° |
| 2026-05-06 18:35 | 16.38914 | 120.54112 | 32531 ft | 506 kts | 335° |
| 2026-05-06 18:36 | 16.42003 | 120.52452 | 32743 ft | 508 kts | 335° |
| 2026-05-06 18:36 | 16.45067 | 120.50806 | 32951 ft | 509 kts | 335° |
| 2026-05-06 18:36 | 16.48202 | 120.49119 | 33162 ft | 510 kts | 335° |
| 2026-05-06 18:36 | 16.51350 | 120.47424 | 33400 ft | 511 kts | 335° |
| 2026-05-06 18:37 | 16.54463 | 120.45746 | 33637 ft | 511 kts | 335° |
| 2026-05-06 18:37 | 16.56571 | 120.44609 | 33778 ft | 512 kts | 334° |
| 2026-05-06 18:37 | 16.60799 | 120.42332 | 33909 ft | 514 kts | 335° |
| 2026-05-06 18:37 | 16.63915 | 120.40633 | 33917 ft | 515 kts | 333° |
| 2026-05-06 18:38 | 16.69855 | 120.36882 | 33921 ft | 516 kts | 327° |
| 2026-05-06 18:38 | 16.75452 | 120.32461 | 33912 ft | 518 kts | 321° |
| 2026-05-06 18:39 | 16.80686 | 120.27319 | 33899 ft | 519 kts | 315° |
| 2026-05-06 18:40 | 16.88056 | 120.19184 | 33882 ft | 519 kts | 314° |
| 2026-05-06 18:40 | 16.93021 | 120.13702 | 33876 ft | 519 kts | 315° |
| 2026-05-06 18:41 | 16.97950 | 120.08276 | 33872 ft | 519 kts | 315° |
| 2026-05-06 18:41 | 17.02842 | 120.02895 | 33870 ft | 521 kts | 315° |
| 2026-05-06 18:42 | 17.07761 | 119.97482 | 33869 ft | 522 kts | 315° |
| 2026-05-06 18:42 | 17.12714 | 119.92039 | 33868 ft | 524 kts | 315° |
| 2026-05-06 18:43 | 17.17701 | 119.86578 | 33869 ft | 524 kts | 315° |
| 2026-05-06 18:43 | 17.22654 | 119.81129 | 33869 ft | 524 kts | 315° |
| 2026-05-06 18:44 | 17.27622 | 119.75649 | 33869 ft | 524 kts | 315° |
| 2026-05-06 18:44 | 17.32643 | 119.70101 | 33869 ft | 524 kts | 315° |
| 2026-05-06 18:45 | 17.37593 | 119.64627 | 33869 ft | 524 kts | 315° |
| 2026-05-06 18:45 | 17.42603 | 119.59081 | 33869 ft | 524 kts | 315° |
| 2026-05-06 18:46 | 17.47575 | 119.53574 | 33869 ft | 524 kts | 315° |
| 2026-05-06 18:46 | 17.52540 | 119.48067 | 33869 ft | 524 kts | 315° |
| 2026-05-06 18:47 | 17.57541 | 119.42517 | 33869 ft | 524 kts | 315° |
| 2026-05-06 18:47 | 17.62550 | 119.36953 | 33869 ft | 524 kts | 315° |
| 2026-05-06 18:48 | 17.67503 | 119.31432 | 33868 ft | 524 kts | 314° |
| 2026-05-06 18:48 | 17.72507 | 119.25833 | 33869 ft | 524 kts | 314° |
| 2026-05-06 18:49 | 17.77451 | 119.20316 | 33869 ft | 523 kts | 314° |
| 2026-05-06 18:49 | 17.82421 | 119.14774 | 33869 ft | 523 kts | 314° |
| 2026-05-06 18:50 | 17.87400 | 119.09218 | 33869 ft | 523 kts | 314° |
| 2026-05-06 18:50 | 17.92354 | 119.03685 | 33869 ft | 523 kts | 314° |
| 2026-05-06 18:51 | 17.97300 | 118.98159 | 33870 ft | 522 kts | 314° |
| 2026-05-06 18:51 | 18.02254 | 118.92622 | 33870 ft | 520 kts | 314° |
| 2026-05-06 18:52 | 18.07174 | 118.87120 | 33870 ft | 518 kts | 314° |
| 2026-05-06 18:52 | 18.12104 | 118.81606 | 33870 ft | 516 kts | 314° |
| 2026-05-06 18:53 | 18.17005 | 118.76144 | 33870 ft | 514 kts | 313° |
| 2026-05-06 18:53 | 18.21894 | 118.70671 | 33870 ft | 514 kts | 313° |
| 2026-05-06 18:54 | 18.26770 | 118.65197 | 33869 ft | 514 kts | 313° |
| 2026-05-06 18:54 | 18.31667 | 118.59690 | 33869 ft | 514 kts | 313° |
| 2026-05-06 18:55 | 18.36495 | 118.54255 | 33869 ft | 514 kts | 313° |
| 2026-05-06 18:55 | 18.41371 | 118.48762 | 33869 ft | 514 kts | 313° |
| 2026-05-06 18:56 | 18.46254 | 118.43254 | 33869 ft | 514 kts | 313° |
| 2026-05-06 18:56 | 18.51141 | 118.37739 | 33869 ft | 514 kts | 313° |
| 2026-05-06 18:57 | 18.55953 | 118.32292 | 33869 ft | 514 kts | 313° |
| 2026-05-06 18:57 | 18.60787 | 118.26794 | 33869 ft | 514 kts | 313° |
| 2026-05-06 18:58 | 18.65635 | 118.21294 | 33869 ft | 514 kts | 313° |
| 2026-05-06 18:58 | 18.70452 | 118.15833 | 33869 ft | 514 kts | 313° |
| 2026-05-06 18:59 | 18.75295 | 118.10342 | 33869 ft | 514 kts | 313° |
| 2026-05-06 18:59 | 18.80139 | 118.04845 | 33869 ft | 514 kts | 313° |
| 2026-05-06 19:00 | 18.84988 | 117.99335 | 33869 ft | 514 kts | 313° |
| 2026-05-06 19:00 | 18.89843 | 117.93816 | 33869 ft | 515 kts | 313° |
| 2026-05-06 19:01 | 18.94694 | 117.88298 | 33868 ft | 517 kts | 313° |
| 2026-05-06 19:01 | 18.99548 | 117.82767 | 33868 ft | 519 kts | 312° |
| 2026-05-06 19:02 | 19.04442 | 117.77188 | 33869 ft | 521 kts | 312° |
| 2026-05-06 19:02 | 19.09355 | 117.71588 | 33869 ft | 522 kts | 312° |
| 2026-05-06 19:03 | 19.14256 | 117.66018 | 33869 ft | 522 kts | 312° |
| 2026-05-06 19:03 | 19.19190 | 117.60410 | 33869 ft | 522 kts | 312° |
| 2026-05-06 19:04 | 19.24124 | 117.54775 | 33870 ft | 522 kts | 312° |
| 2026-05-06 19:04 | 19.29043 | 117.49143 | 33870 ft | 522 kts | 312° |
| 2026-05-06 19:05 | 19.33951 | 117.43516 | 33869 ft | 522 kts | 312° |
| 2026-05-06 19:05 | 19.38831 | 117.37915 | 33869 ft | 522 kts | 312° |
| 2026-05-06 19:06 | 19.43734 | 117.32274 | 33869 ft | 522 kts | 311° |
| 2026-05-06 19:06 | 19.48582 | 117.26667 | 33869 ft | 522 kts | 311° |
| 2026-05-06 19:07 | 19.53474 | 117.21022 | 33869 ft | 522 kts | 311° |
| 2026-05-06 19:07 | 19.58374 | 117.15373 | 33869 ft | 522 kts | 311° |
| 2026-05-06 19:08 | 19.63266 | 117.09730 | 33870 ft | 522 kts | 312° |
| 2026-05-06 19:08 | 19.68132 | 117.04100 | 33875 ft | 519 kts | 313° |
| 2026-05-06 19:09 | 19.72997 | 116.98477 | 33892 ft | 515 kts | 313° |
| 2026-05-06 19:09 | 19.77783 | 116.92947 | 33918 ft | 510 kts | 314° |
| 2026-05-06 19:10 | 19.82520 | 116.87470 | 33941 ft | 505 kts | 313° |
| 2026-05-06 19:10 | 19.87258 | 116.81980 | 33957 ft | 504 kts | 313° |
| 2026-05-06 19:11 | 19.91911 | 116.76578 | 33965 ft | 503 kts | 313° |
| 2026-05-06 19:11 | 19.96489 | 116.71106 | 33968 ft | 504 kts | 310° |
| 2026-05-06 19:12 | 20.00465 | 116.65442 | 33971 ft | 504 kts | 304° |
| 2026-05-06 19:12 | 20.04032 | 116.59119 | 33972 ft | 505 kts | 299° |
| 2026-05-06 19:13 | 20.07234 | 116.52629 | 33973 ft | 505 kts | 298° |
| 2026-05-06 19:13 | 20.10481 | 116.45998 | 33969 ft | 505 kts | 298° |
| 2026-05-06 19:14 | 20.13736 | 116.39438 | 33965 ft | 505 kts | 299° |
| 2026-05-06 19:14 | 20.17003 | 116.32832 | 33959 ft | 506 kts | 298° |
| 2026-05-06 19:15 | 20.20257 | 116.26190 | 33955 ft | 506 kts | 298° |
| 2026-05-06 19:15 | 20.23492 | 116.19589 | 33953 ft | 506 kts | 298° |
| 2026-05-06 19:16 | 20.26707 | 116.13026 | 33953 ft | 506 kts | 298° |
| 2026-05-06 19:16 | 20.29917 | 116.06467 | 33952 ft | 506 kts | 298° |
| 2026-05-06 19:17 | 20.33163 | 115.99840 | 33952 ft | 506 kts | 298° |
| 2026-05-06 19:17 | 20.36407 | 115.93224 | 33952 ft | 506 kts | 298° |
| 2026-05-06 19:18 | 20.39651 | 115.86587 | 33952 ft | 506 kts | 298° |
| 2026-05-06 19:18 | 20.42850 | 115.80026 | 33952 ft | 506 kts | 298° |
| 2026-05-06 19:19 | 20.46043 | 115.73462 | 33952 ft | 506 kts | 298° |
| 2026-05-06 19:19 | 20.49242 | 115.66876 | 33952 ft | 506 kts | 298° |
| 2026-05-06 19:20 | 20.52588 | 115.60328 | 33952 ft | 505 kts | 302° |
| 2026-05-06 19:20 | 20.56487 | 115.54171 | 33952 ft | 504 kts | 308° |
| 2026-05-06 19:21 | 20.60982 | 115.48454 | 33765 ft | 504 kts | 314° |
| 2026-05-06 19:21 | 20.63419 | 115.45795 | 33499 ft | 502 kts | 316° |
| 2026-05-06 19:21 | 20.65876 | 115.43223 | 33066 ft | 499 kts | 317° |
| 2026-05-06 19:21 | 20.68336 | 115.40667 | 32477 ft | 496 kts | 317° |
| 2026-05-06 19:22 | 20.70773 | 115.38135 | 31796 ft | 495 kts | 317° |
| 2026-05-06 19:22 | 20.73222 | 115.35580 | 31065 ft | 495 kts | 317° |
| 2026-05-06 19:22 | 20.75636 | 115.33049 | 30314 ft | 495 kts | 316° |
| 2026-05-06 19:22 | 20.78050 | 115.30503 | 29541 ft | 496 kts | 316° |
| 2026-05-06 19:23 | 20.80411 | 115.28013 | 28759 ft | 496 kts | 316° |
| 2026-05-06 19:23 | 20.82835 | 115.25459 | 28090 ft | 492 kts | 316° |
| 2026-05-06 19:23 | 20.85272 | 115.22896 | 27624 ft | 490 kts | 316° |
| 2026-05-06 19:23 | 20.87667 | 115.20378 | 27049 ft | 486 kts | 316° |
| 2026-05-06 19:24 | 20.90043 | 115.17881 | 26522 ft | 480 kts | 316° |
| 2026-05-06 19:24 | 20.92413 | 115.15389 | 26015 ft | 474 kts | 316° |
| 2026-05-06 19:24 | 20.94730 | 115.12949 | 25450 ft | 470 kts | 316° |
| 2026-05-06 19:24 | 20.96843 | 115.10725 | 24942 ft | 466 kts | 316° |
| 2026-05-06 19:25 | 20.99163 | 115.08279 | 24423 ft | 460 kts | 316° |
| 2026-05-06 19:25 | 21.01423 | 115.05895 | 23938 ft | 455 kts | 316° |
| 2026-05-06 19:25 | 21.03647 | 115.03552 | 23469 ft | 449 kts | 316° |
| 2026-05-06 19:25 | 21.05851 | 115.01229 | 23004 ft | 443 kts | 316° |
| 2026-05-06 19:26 | 21.08040 | 114.98922 | 22545 ft | 438 kts | 316° |
| 2026-05-06 19:26 | 21.10094 | 114.96757 | 22111 ft | 433 kts | 316° |
| 2026-05-06 19:26 | 21.12277 | 114.94464 | 21644 ft | 428 kts | 316° |
| 2026-05-06 19:26 | 21.14341 | 114.92297 | 21196 ft | 424 kts | 316° |
| 2026-05-06 19:27 | 21.16421 | 114.90109 | 20736 ft | 420 kts | 316° |
| 2026-05-06 19:27 | 21.18504 | 114.87912 | 20269 ft | 416 kts | 316° |
| 2026-05-06 19:27 | 21.20538 | 114.85763 | 19808 ft | 412 kts | 316° |
| 2026-05-06 19:27 | 21.22583 | 114.83599 | 19343 ft | 409 kts | 316° |
| 2026-05-06 19:28 | 21.24611 | 114.81451 | 18879 ft | 406 kts | 316° |
| 2026-05-06 19:28 | 21.26585 | 114.79360 | 18424 ft | 403 kts | 316° |
| 2026-05-06 19:28 | 21.28576 | 114.77249 | 17964 ft | 400 kts | 316° |
| 2026-05-06 19:28 | 21.30507 | 114.75201 | 17516 ft | 397 kts | 316° |
| 2026-05-06 19:29 | 21.32488 | 114.73099 | 17056 ft | 394 kts | 316° |
| 2026-05-06 19:29 | 21.34415 | 114.71053 | 16607 ft | 392 kts | 316° |
| 2026-05-06 19:29 | 21.36345 | 114.69001 | 16153 ft | 389 kts | 316° |
| 2026-05-06 19:29 | 21.38234 | 114.66993 | 15709 ft | 387 kts | 316° |
| 2026-05-06 19:30 | 21.40119 | 114.64988 | 15263 ft | 384 kts | 315° |
| 2026-05-06 19:30 | 21.41936 | 114.63055 | 14831 ft | 382 kts | 315° |
| 2026-05-06 19:30 | 21.43767 | 114.61044 | 14486 ft | 392 kts | 313° |
| 2026-05-06 19:30 | 21.45502 | 114.58941 | 14240 ft | 398 kts | 311° |
| 2026-05-06 19:31 | 21.47284 | 114.56718 | 13991 ft | 398 kts | 311° |
| 2026-05-06 19:31 | 21.48929 | 114.54660 | 13762 ft | 397 kts | 311° |
| 2026-05-06 19:31 | 21.52492 | 114.50217 | 13265 ft | 395 kts | 311° |
| 2026-05-06 19:32 | 21.54238 | 114.48048 | 13021 ft | 393 kts | 311° |
| 2026-05-06 19:32 | 21.55978 | 114.45887 | 12777 ft | 392 kts | 311° |
| 2026-05-06 19:32 | 21.57720 | 114.43727 | 12529 ft | 390 kts | 311° |
| 2026-05-06 19:32 | 21.59468 | 114.41557 | 12273 ft | 389 kts | 311° |
| 2026-05-06 19:33 | 21.61197 | 114.39413 | 11982 ft | 388 kts | 311° |
| 2026-05-06 19:33 | 21.62948 | 114.37240 | 11591 ft | 385 kts | 311° |
| 2026-05-06 19:33 | 21.64686 | 114.35081 | 11161 ft | 383 kts | 311° |
| 2026-05-06 19:33 | 21.66355 | 114.32998 | 10869 ft | 373 kts | 311° |
| 2026-05-06 19:34 | 21.67980 | 114.30965 | 10724 ft | 359 kts | 311° |
| 2026-05-06 19:34 | 21.69536 | 114.29021 | 10582 ft | 346 kts | 311° |
| 2026-05-06 19:34 | 21.71039 | 114.27145 | 10454 ft | 333 kts | 311° |
| 2026-05-06 19:34 | 21.72422 | 114.25421 | 10345 ft | 322 kts | 311° |
| 2026-05-06 19:35 | 21.73861 | 114.23626 | 10245 ft | 309 kts | 311° |
| 2026-05-06 19:35 | 21.75250 | 114.21895 | 10159 ft | 297 kts | 311° |
| 2026-05-06 19:35 | 21.76561 | 114.20262 | 10088 ft | 286 kts | 311° |
| 2026-05-06 19:35 | 21.77816 | 114.18698 | 10023 ft | 275 kts | 311° |
| 2026-05-06 19:36 | 21.79069 | 114.17137 | 9731 ft | 275 kts | 311° |
| 2026-05-06 19:36 | 21.80319 | 114.15580 | 9448 ft | 273 kts | 311° |
| 2026-05-06 19:36 | 21.81554 | 114.14040 | 9178 ft | 272 kts | 311° |
| 2026-05-06 19:36 | 21.82781 | 114.12511 | 8915 ft | 270 kts | 312° |
| 2026-05-06 19:37 | 21.83968 | 114.11030 | 8658 ft | 269 kts | 312° |
| 2026-05-06 19:37 | 21.85181 | 114.09518 | 8400 ft | 267 kts | 312° |
| 2026-05-06 19:37 | 21.86389 | 114.08011 | 8143 ft | 266 kts | 312° |
| 2026-05-06 19:37 | 21.87169 | 114.07038 | 7977 ft | 265 kts | 312° |
| 2026-05-06 19:38 | 21.88720 | 114.05103 | 7652 ft | 263 kts | 312° |
| 2026-05-06 19:38 | 21.89889 | 114.03644 | 7406 ft | 262 kts | 312° |
| 2026-05-06 19:38 | 21.91064 | 114.02175 | 7155 ft | 261 kts | 312° |
| 2026-05-06 19:38 | 21.92197 | 114.00761 | 6915 ft | 260 kts | 312° |
| 2026-05-06 19:39 | 21.93365 | 113.99301 | 6668 ft | 260 kts | 312° |
| 2026-05-06 19:39 | 21.94509 | 113.97872 | 6428 ft | 259 kts | 312° |
| 2026-05-06 19:39 | 21.95648 | 113.96447 | 6191 ft | 258 kts | 312° |
| 2026-05-06 19:39 | 21.96786 | 113.95024 | 5955 ft | 257 kts | 312° |
| 2026-05-06 19:40 | 21.97947 | 113.93572 | 5714 ft | 257 kts | 312° |
| 2026-05-06 19:40 | 21.99044 | 113.92199 | 5485 ft | 256 kts | 312° |
| 2026-05-06 19:40 | 22.00198 | 113.90754 | 5247 ft | 255 kts | 312° |
| 2026-05-06 19:40 | 22.01336 | 113.89330 | 5012 ft | 255 kts | 312° |
| 2026-05-06 19:41 | 22.02487 | 113.87889 | 4777 ft | 254 kts | 312° |
| 2026-05-06 19:41 | 22.03617 | 113.86473 | 4536 ft | 254 kts | 312° |
| 2026-05-06 19:41 | 22.04768 | 113.85031 | 4303 ft | 253 kts | 312° |
| 2026-05-06 19:41 | 22.05910 | 113.83599 | 4068 ft | 253 kts | 312° |
| 2026-05-06 19:42 | 22.07054 | 113.82166 | 3838 ft | 252 kts | 312° |
| 2026-05-06 19:42 | 22.08181 | 113.80753 | 3608 ft | 252 kts | 312° |
| 2026-05-06 19:42 | 22.09317 | 113.79330 | 3373 ft | 252 kts | 312° |
| 2026-05-06 19:42 | 22.10433 | 113.78049 | 3140 ft | 251 kts | 321° |
| 2026-05-06 19:43 | 22.11869 | 113.76981 | 2895 ft | 250 kts | 334° |
| 2026-05-06 19:43 | 22.13418 | 113.76179 | 2763 ft | 243 kts | 337° |
| 2026-05-06 19:43 | 22.14936 | 113.75449 | 2754 ft | 230 kts | 338° |
| 2026-05-06 19:43 | 22.16354 | 113.74765 | 2725 ft | 218 kts | 337° |
| 2026-05-06 19:44 | 22.17676 | 113.74119 | 2688 ft | 208 kts | 337° |
| 2026-05-06 19:44 | 22.18960 | 113.73485 | 2643 ft | 197 kts | 337° |
| 2026-05-06 19:44 | 22.20154 | 113.72890 | 2599 ft | 186 kts | 337° |
| 2026-05-06 19:44 | 22.21380 | 113.72541 | 2489 ft | 181 kts | 9° |
| 2026-05-06 19:45 | 22.22511 | 113.73025 | 2312 ft | 179 kts | 34° |
| 2026-05-06 19:45 | 22.23545 | 113.73770 | 2171 ft | 177 kts | 36° |
| 2026-05-06 19:45 | 22.24562 | 113.74517 | 2091 ft | 177 kts | 35° |
| 2026-05-06 19:45 | 22.25542 | 113.75227 | 1947 ft | 168 kts | 35° |
| 2026-05-06 19:46 | 22.26474 | 113.75932 | 1741 ft | 161 kts | 46° |
| 2026-05-06 19:46 | 22.26994 | 113.76915 | 1647 ft | 160 kts | 69° |
| 2026-05-06 19:46 | 22.27346 | 113.78015 | 1633 ft | 161 kts | 72° |
| 2026-05-06 19:46 | 22.27683 | 113.79160 | 1614 ft | 161 kts | 72° |
| 2026-05-06 19:47 | 22.28024 | 113.80282 | 1607 ft | 159 kts | 72° |
| 2026-05-06 19:47 | 22.28369 | 113.81370 | 1596 ft | 153 kts | 71° |
| 2026-05-06 19:47 | 22.28706 | 113.82411 | 1466 ft | 153 kts | 71° |
| 2026-05-06 19:47 | 22.29055 | 113.83485 | 1269 ft | 152 kts | 71° |
| 2026-05-06 19:48 | 22.29394 | 113.84535 | 1080 ft | 149 kts | 71° |
| 2026-05-06 19:48 | 22.29713 | 113.85520 | 887 ft | 142 kts | 71° |
| 2026-05-06 19:48 | 22.30027 | 113.86495 | 712 ft | 141 kts | 72° |
| 2026-05-06 19:48 | 22.30340 | 113.87463 | 534 ft | 140 kts | 72° |
| 2026-05-06 19:49 | 22.30648 | 113.88422 | 357 ft | 140 kts | 72° |
| 2026-05-06 19:49 | 22.30956 | 113.89378 | 179 ft | 139 kts | 72° |
| 2026-05-06 19:49 | 22.31269 | 113.90348 | 40 ft | 131 kts | 71° |
| 2026-05-06 19:49 | 22.31519 | 113.91128 | 37 ft | 93 kts | 71° |
| 2026-05-06 19:50 | 22.31640 | 113.91514 | 37 ft | 33 kts | 75° |
| 2026-05-06 19:50 | 22.31650 | 113.91700 | 37 ft | 21 kts | 97° |
| 2026-05-06 19:50 | 22.31641 | 113.91763 | 37 ft | 3 kts | 99° |
| 2026-05-06 19:50 | 22.31634 | 113.91813 | 37 ft | 10 kts | 101° |
| 2026-05-06 19:51 | 22.31613 | 113.91911 | 37 ft | 13 kts | 100° |
| 2026-05-06 19:51 | 22.31629 | 113.92029 | 37 ft | 18 kts | 71° |
| 2026-05-06 19:51 | 22.31669 | 113.92155 | 37 ft | 17 kts | 71° |
| 2026-05-06 19:51 | 22.31712 | 113.92284 | 37 ft | 19 kts | 70° |
| 2026-05-06 19:52 | 22.31735 | 113.92384 | 37 ft | 9 kts | 100° |
| 2026-05-06 19:52 | 22.31679 | 113.92436 | 37 ft | 11 kts | 157° |
| 2026-05-06 19:52 | 22.31622 | 113.92478 | 37 ft | 10 kts | 125° |
| 2026-05-06 19:52 | 22.31585 | 113.92554 | 37 ft | 13 kts | 116° |
| 2026-05-06 19:53 | 22.31541 | 113.92651 | 37 ft | 16 kts | 116° |
| 2026-05-06 19:53 | 22.31498 | 113.92745 | 37 ft | 11 kts | 114° |
| 2026-05-06 19:53 | 22.31494 | 113.92804 | 37 ft | 9 kts | 78° |
| 2026-05-06 19:53 | 22.31511 | 113.92866 | 37 ft | 9 kts | 71° |
| 2026-05-06 19:54 | 22.31531 | 113.92932 | 37 ft | 6 kts | 76° |
| 2026-05-06 19:54 | 22.31516 | 113.92973 | 37 ft | 5 kts | 141° |
| 2026-05-06 19:54 | 22.31484 | 113.92989 | 37 ft | 6 kts | 158° |
| 2026-05-06 19:54 | 22.31457 | 113.93000 | 37 ft | 2 kts | 159° |
| 2026-05-06 19:55 | 22.31452 | 113.93002 | 37 ft | 0 kts | 160° |